首页
METAR-TAF:

METAR-TAF

机场 :

韦策机场

Weeze, 德国

纬度: 51-36-09N, 经度: 006-08-32E, 海拔: 32米

当前天气观测

该预报发布于38分钟前的18:20 UTC
风速13节,风向西南
温度 8°C
湿度 71%
气压 1018 hPa
能见度10公里或以上
散云层高于3700英尺

METAR: EDLV 181820Z 22013KT 9999 SCT037 08/03 Q1018

时间: 19:58 (18:58 UTC)

预报

该预报发布于1小时和58分钟前的17:00 UTC
预报有效从18日的 18点(UTC)到 19日的 18点(UTC)
风速12节,风向西南
能见度10公里或以上
散云层高于3500英尺
成为
从 18日的 19点(UTC)到 18日的 22点(UTC)
风速15节,风向西南,有时为25节阵风
短暂存在
从 18日的 23点(UTC)到 19日的 05点(UTC)
风速20节,风向西转西南,有时为30节阵风
能見度: 4500
多云层高于1300英尺, 塔状积云.
阵雨
成为
从 19日的 04点(UTC)到 19日的 06点(UTC)
风速12节,风向西
短暂存在
从 19日的 10点(UTC)到 19日的 16点(UTC)
风速15节,风向西,有时为25节阵风

TAF: EDLV 181700Z 1818/1918 22012KT 9999 SCT035 BECMG 1819/1822 23015G25KT TEMPO 1823/1905 24020G30KT 4500 SHRA BKN013TCU BECMG 1904/1906 27012KT TEMPO 1910/1916 27015G25KT

超过4000个机场的气象观测和天气预报(METAR&TAF报告)。

可查询的气象台以黄色和红色小点在地图上表示。

将鼠标移到小点上方,可查看气象台名称。

然后点击查看天气观测和预报。

如需切换地图:点击带黑十字的绿色按钮放大地图;点击带横线的绿色按钮缩小地图;或者点击绿色箭头查看邻近地区的地图。


METAR-TAF: